sensor_id;sensor_type;location;lat;lon;timestamp;pressure;altitude;pressure_sealevel;temperature;humidity
8340;BME280;4207;49.314;7.162;2024-03-23T00:53:58;97317.28;;;10.77;72.16
8340;BME280;4207;49.314;7.162;2024-03-23T00:56:25;97315.63;;;10.82;72.22
8340;BME280;4207;49.314;7.162;2024-03-23T00:58:51;97316.50;;;10.77;72.42
8340;BME280;4207;49.314;7.162;2024-03-23T01:01:18;97306.84;;;10.67;72.88
8340;BME280;4207;49.314;7.162;2024-03-23T01:03:43;97310.88;;;10.65;72.84
8340;BME280;4207;49.314;7.162;2024-03-23T01:06:10;97296.88;;;10.59;72.97
8340;BME280;4207;49.314;7.162;2024-03-23T01:08:38;97305.38;;;10.61;73.32
8340;BME280;4207;49.314;7.162;2024-03-23T01:11:05;97305.75;;;10.55;73.67
8340;BME280;4207;49.314;7.162;2024-03-23T01:13:30;97297.97;;;10.58;73.63
8340;BME280;4207;49.314;7.162;2024-03-23T01:15:57;97296.50;;;10.66;73.32
8340;BME280;4207;49.314;7.162;2024-03-23T01:18:23;97292.53;;;10.63;73.43
8340;BME280;4207;49.314;7.162;2024-03-23T01:20:51;97298.44;;;10.47;73.76
8340;BME280;4207;49.314;7.162;2024-03-23T01:23:17;97301.59;;;10.49;74.09
8340;BME280;4207;49.314;7.162;2024-03-23T01:25:52;97296.28;;;10.49;73.86
8340;BME280;4207;49.314;7.162;2024-03-23T01:28:18;97302.66;;;10.34;74.30
8340;BME280;4207;49.314;7.162;2024-03-23T01:30:45;97298.72;;;10.32;74.56
8340;BME280;4207;49.314;7.162;2024-03-23T01:33:11;97303.75;;;10.33;74.72
8340;BME280;4207;49.314;7.162;2024-03-23T01:35:38;97298.97;;;10.16;75.21
8340;BME280;4207;49.314;7.162;2024-03-23T01:38:04;97288.06;;;10.32;74.75
8340;BME280;4207;49.314;7.162;2024-03-23T01:40:31;97289.56;;;10.24;74.74
8340;BME280;4207;49.314;7.162;2024-03-23T01:43:04;97286.56;;;9.93;75.58
8340;BME280;4207;49.314;7.162;2024-03-23T01:45:32;97282.97;;;10.03;75.26
8340;BME280;4207;49.314;7.162;2024-03-23T01:47:58;97285.19;;;9.96;75.57
8340;BME280;4207;49.314;7.162;2024-03-23T01:50:26;97293.22;;;10.09;74.67
8340;BME280;4207;49.314;7.162;2024-03-23T01:52:52;97291.38;;;9.91;75.49
8340;BME280;4207;49.314;7.162;2024-03-23T01:55:19;97289.00;;;9.90;75.42
8340;BME280;4207;49.314;7.162;2024-03-23T01:57:45;97280.44;;;10.11;74.37
8340;BME280;4207;49.314;7.162;2024-03-23T02:00:14;97287.28;;;9.99;74.82
8340;BME280;4207;49.314;7.162;2024-03-23T02:02:44;97277.19;;;9.82;75.80
8340;BME280;4207;49.314;7.162;2024-03-23T02:05:11;97285.66;;;9.84;75.84
8340;BME280;4207;49.314;7.162;2024-03-23T02:07:37;97289.28;;;9.75;76.21
8340;BME280;4207;49.314;7.162;2024-03-23T02:10:06;97289.69;;;9.82;75.89
8340;BME280;4207;49.314;7.162;2024-03-23T02:12:31;97284.22;;;9.92;75.26
8340;BME280;4207;49.314;7.162;2024-03-23T02:14:58;97290.56;;;9.77;76.24
8340;BME280;4207;49.314;7.162;2024-03-23T02:17:25;97286.16;;;9.86;75.75
8340;BME280;4207;49.314;7.162;2024-03-23T02:19:52;97286.63;;;9.75;76.39
8340;BME280;4207;49.314;7.162;2024-03-23T02:22:18;97279.72;;;9.74;76.48
8340;BME280;4207;49.314;7.162;2024-03-23T02:24:46;97279.69;;;9.92;76.10
8340;BME280;4207;49.314;7.162;2024-03-23T02:27:12;97266.50;;;9.69;76.59
8340;BME280;4207;49.314;7.162;2024-03-23T02:29:39;97266.06;;;9.80;76.52
8340;BME280;4207;49.314;7.162;2024-03-23T02:32:05;97265.06;;;9.76;76.58
8340;BME280;4207;49.314;7.162;2024-03-23T02:34:34;97274.97;;;9.71;76.65
8340;BME280;4207;49.314;7.162;2024-03-23T02:37:00;97273.91;;;9.72;76.88
8340;BME280;4207;49.314;7.162;2024-03-23T02:39:27;97280.59;;;9.50;78.05
8340;BME280;4207;49.314;7.162;2024-03-23T02:41:54;97289.28;;;9.37;79.13
8340;BME280;4207;49.314;7.162;2024-03-23T02:44:21;97280.72;;;9.59;78.00
8340;BME280;4207;49.314;7.162;2024-03-23T02:46:47;97284.88;;;9.46;78.62
8340;BME280;4207;49.314;7.162;2024-03-23T02:49:14;97276.88;;;9.51;78.60
8340;BME280;4207;49.314;7.162;2024-03-23T02:51:40;97276.38;;;9.31;79.04
8340;BME280;4207;49.314;7.162;2024-03-23T02:54:07;97269.63;;;9.57;78.34
8340;BME280;4207;49.314;7.162;2024-03-23T02:56:33;97266.38;;;9.60;78.58
8340;BME280;4207;49.314;7.162;2024-03-23T02:59:02;97259.25;;;9.74;77.26
8340;BME280;4207;49.314;7.162;2024-03-23T03:01:28;97251.25;;;9.60;78.01
8340;BME280;4207;49.314;7.162;2024-03-23T03:03:54;97257.13;;;9.57;78.46
8340;BME280;4207;49.314;7.162;2024-03-23T03:06:24;97250.72;;;9.58;78.04
8340;BME280;4207;49.314;7.162;2024-03-23T03:08:50;97257.06;;;9.44;78.54
8340;BME280;4207;49.314;7.162;2024-03-23T03:11:16;97254.75;;;9.56;78.39
8340;BME280;4207;49.314;7.162;2024-03-23T03:13:43;97257.72;;;9.54;78.00
8340;BME280;4207;49.314;7.162;2024-03-23T03:16:11;97255.91;;;9.50;78.19
8340;BME280;4207;49.314;7.162;2024-03-23T03:18:38;97249.59;;;9.27;77.58
8340;BME280;4207;49.314;7.162;2024-03-23T03:21:05;97259.00;;;9.38;77.36
8340;BME280;4207;49.314;7.162;2024-03-23T03:23:36;97271.72;;;9.23;77.05
8340;BME280;4207;49.314;7.162;2024-03-23T03:26:02;97275.19;;;9.18;76.89
8340;BME280;4207;49.314;7.162;2024-03-23T03:28:29;97277.16;;;8.89;78.78
8340;BME280;4207;49.314;7.162;2024-03-23T03:30:56;97278.81;;;8.85;79.77
8340;BME280;4207;49.314;7.162;2024-03-23T03:33:27;97274.75;;;8.45;80.92
8340;BME280;4207;49.314;7.162;2024-03-23T03:35:53;97281.47;;;8.37;82.10
8340;BME280;4207;49.314;7.162;2024-03-23T03:38:21;97284.19;;;8.27;83.15
8340;BME280;4207;49.314;7.162;2024-03-23T03:40:46;97286.31;;;8.25;82.73
8340;BME280;4207;49.314;7.162;2024-03-23T03:43:13;97284.47;;;8.26;82.87
8340;BME280;4207;49.314;7.162;2024-03-23T03:45:39;97304.00;;;8.06;84.10
8340;BME280;4207;49.314;7.162;2024-03-23T03:48:07;97314.09;;;7.99;82.84
8340;BME280;4207;49.314;7.162;2024-03-23T03:50:34;97314.34;;;7.69;83.29
8340;BME280;4207;49.314;7.162;2024-03-23T03:53:01;97318.56;;;7.75;83.86
8340;BME280;4207;49.314;7.162;2024-03-23T03:55:27;97323.66;;;7.61;82.38
8340;BME280;4207;49.314;7.162;2024-03-23T03:57:54;97321.84;;;7.57;83.35
8340;BME280;4207;49.314;7.162;2024-03-23T04:00:19;97330.66;;;7.42;83.62
8340;BME280;4207;49.314;7.162;2024-03-23T04:02:46;97334.09;;;7.43;82.84
8340;BME280;4207;49.314;7.162;2024-03-23T04:05:12;97339.22;;;7.24;82.98
8340;BME280;4207;49.314;7.162;2024-03-23T04:07:42;97339.47;;;7.27;83.31
8340;BME280;4207;49.314;7.162;2024-03-23T04:10:08;97344.28;;;7.15;82.68
8340;BME280;4207;49.314;7.162;2024-03-23T04:12:35;97326.59;;;7.11;81.27
8340;BME280;4207;49.314;7.162;2024-03-23T04:15:01;97328.19;;;7.07;80.43
8340;BME280;4207;49.314;7.162;2024-03-23T04:17:29;97331.88;;;7.06;81.32
8340;BME280;4207;49.314;7.162;2024-03-23T04:19:57;97336.09;;;7.12;81.18
8340;BME280;4207;49.314;7.162;2024-03-23T04:22:25;97345.66;;;7.08;82.44
8340;BME280;4207;49.314;7.162;2024-03-23T04:24:54;97350.47;;;6.91;82.01
8340;BME280;4207;49.314;7.162;2024-03-23T04:27:21;97348.38;;;6.82;82.04
8340;BME280;4207;49.314;7.162;2024-03-23T04:29:47;97357.13;;;6.68;82.07
8340;BME280;4207;49.314;7.162;2024-03-23T04:32:15;97359.19;;;6.96;80.72
8340;BME280;4207;49.314;7.162;2024-03-23T04:34:40;97358.97;;;6.77;81.30
8340;BME280;4207;49.314;7.162;2024-03-23T04:37:07;97368.44;;;6.99;80.64
8340;BME280;4207;49.314;7.162;2024-03-23T04:39:34;97378.25;;;6.93;81.10
8340;BME280;4207;49.314;7.162;2024-03-23T04:42:03;97379.50;;;7.06;81.94
8340;BME280;4207;49.314;7.162;2024-03-23T04:44:30;97387.97;;;7.08;82.29
8340;BME280;4207;49.314;7.162;2024-03-23T04:46:57;97383.50;;;6.98;82.97
8340;BME280;4207;49.314;7.162;2024-03-23T04:49:24;97380.41;;;6.76;83.75
8340;BME280;4207;49.314;7.162;2024-03-23T04:51:50;97377.78;;;6.61;82.75
8340;BME280;4207;49.314;7.162;2024-03-23T04:54:17;97381.44;;;6.80;82.55
8340;BME280;4207;49.314;7.162;2024-03-23T04:56:48;97390.41;;;6.84;81.20
8340;BME280;4207;49.314;7.162;2024-03-23T04:59:16;97389.06;;;6.92;81.63
8340;BME280;4207;49.314;7.162;2024-03-23T05:01:42;97391.53;;;6.58;81.97
8340;BME280;4207;49.314;7.162;2024-03-23T05:04:09;97397.81;;;6.77;81.69
8340;BME280;4207;49.314;7.162;2024-03-23T05:06:35;97391.25;;;6.69;81.02
8340;BME280;4207;49.314;7.162;2024-03-23T05:09:02;97397.88;;;6.42;82.13
8340;BME280;4207;49.314;7.162;2024-03-23T05:11:31;97405.78;;;6.57;81.75
8340;BME280;4207;49.314;7.162;2024-03-23T05:13:58;97409.25;;;6.37;82.71
8340;BME280;4207;49.314;7.162;2024-03-23T05:16:26;97411.06;;;6.67;81.00
8340;BME280;4207;49.314;7.162;2024-03-23T05:18:54;97411.88;;;6.42;82.42
8340;BME280;4207;49.314;7.162;2024-03-23T05:21:20;97411.38;;;6.35;83.01
8340;BME280;4207;49.314;7.162;2024-03-23T05:23:47;97414.28;;;6.44;82.15
8340;BME280;4207;49.314;7.162;2024-03-23T05:26:13;97419.53;;;6.49;81.51
8340;BME280;4207;49.314;7.162;2024-03-23T05:28:40;97424.03;;;6.53;81.97
8340;BME280;4207;49.314;7.162;2024-03-23T05:31:06;97429.56;;;6.57;82.44
8340;BME280;4207;49.314;7.162;2024-03-23T05:33:36;97432.75;;;6.39;84.09
8340;BME280;4207;49.314;7.162;2024-03-23T05:36:04;97434.34;;;6.50;83.41
8340;BME280;4207;49.314;7.162;2024-03-23T05:38:30;97426.69;;;6.43;83.62
8340;BME280;4207;49.314;7.162;2024-03-23T05:40:58;97445.97;;;6.39;84.40
8340;BME280;4207;49.314;7.162;2024-03-23T05:43:26;97444.38;;;6.28;84.25
8340;BME280;4207;49.314;7.162;2024-03-23T05:45:54;97442.81;;;6.32;83.45
8340;BME280;4207;49.314;7.162;2024-03-23T05:48:20;97442.28;;;6.30;83.08
8340;BME280;4207;49.314;7.162;2024-03-23T05:50:48;97438.81;;;6.24;83.10
8340;BME280;4207;49.314;7.162;2024-03-23T05:53:14;97454.13;;;6.27;82.57
8340;BME280;4207;49.314;7.162;2024-03-23T05:55:41;97450.44;;;6.28;81.67
8340;BME280;4207;49.314;7.162;2024-03-23T05:58:07;97464.69;;;6.07;81.29
8340;BME280;4207;49.314;7.162;2024-03-23T06:00:34;97463.38;;;6.14;81.24
8340;BME280;4207;49.314;7.162;2024-03-23T06:03:00;97473.69;;;6.11;80.26
8340;BME280;4207;49.314;7.162;2024-03-23T06:05:27;97477.13;;;6.06;79.43
8340;BME280;4207;49.314;7.162;2024-03-23T06:07:55;97472.59;;;6.02;78.77
8340;BME280;4207;49.314;7.162;2024-03-23T06:10:22;97478.41;;;6.04;77.54
8340;BME280;4207;49.314;7.162;2024-03-23T06:12:48;97494.53;;;6.02;77.55
8340;BME280;4207;49.314;7.162;2024-03-23T06:15:17;97503.25;;;6.03;77.43
8340;BME280;4207;49.314;7.162;2024-03-23T06:17:43;97513.22;;;5.86;78.34
8340;BME280;4207;49.314;7.162;2024-03-23T06:20:10;97513.25;;;5.96;78.91
8340;BME280;4207;49.314;7.162;2024-03-23T06:22:36;97517.22;;;5.98;78.40
8340;BME280;4207;49.314;7.162;2024-03-23T06:25:05;97525.16;;;6.03;77.37
8340;BME280;4207;49.314;7.162;2024-03-23T06:27:31;97531.22;;;6.04;78.42
8340;BME280;4207;49.314;7.162;2024-03-23T06:29:58;97544.66;;;5.92;77.02
8340;BME280;4207;49.314;7.162;2024-03-23T06:32:24;97552.31;;;5.94;77.13
8340;BME280;4207;49.314;7.162;2024-03-23T06:34:51;97566.28;;;5.89;78.37
8340;BME280;4207;49.314;7.162;2024-03-23T06:37:17;97570.50;;;5.85;79.00
8340;BME280;4207;49.314;7.162;2024-03-23T06:39:45;97578.22;;;5.97;77.46
8340;BME280;4207;49.314;7.162;2024-03-23T06:42:13;97579.53;;;5.94;76.71
8340;BME280;4207;49.314;7.162;2024-03-23T06:44:40;97582.19;;;5.99;76.74
8340;BME280;4207;49.314;7.162;2024-03-23T06:47:06;97587.47;;;5.99;77.13
8340;BME280;4207;49.314;7.162;2024-03-23T06:49:33;97597.75;;;6.01;77.51
8340;BME280;4207;49.314;7.162;2024-03-23T06:51:58;97601.44;;;5.95;75.18
8340;BME280;4207;49.314;7.162;2024-03-23T06:54:26;97641.47;;;5.82;75.63
8340;BME280;4207;49.314;7.162;2024-03-23T06:56:52;97616.63;;;5.78;75.29
8340;BME280;4207;49.314;7.162;2024-03-23T06:59:20;97632.16;;;5.69;76.06
8340;BME280;4207;49.314;7.162;2024-03-23T07:01:46;97631.19;;;5.80;74.53
8340;BME280;4207;49.314;7.162;2024-03-23T07:04:12;97629.38;;;5.86;74.86
8340;BME280;4207;49.314;7.162;2024-03-23T07:06:42;97642.50;;;5.76;73.56
8340;BME280;4207;49.314;7.162;2024-03-23T07:09:09;97641.75;;;5.80;73.95
8340;BME280;4207;49.314;7.162;2024-03-23T07:11:35;97646.06;;;5.96;73.92
8340;BME280;4207;49.314;7.162;2024-03-23T07:14:02;97653.97;;;5.91;74.58
8340;BME280;4207;49.314;7.162;2024-03-23T07:16:30;97648.69;;;5.91;73.96
8340;BME280;4207;49.314;7.162;2024-03-23T07:18:57;97651.66;;;6.05;74.69
8340;BME280;4207;49.314;7.162;2024-03-23T07:21:22;97655.59;;;6.02;74.85
8340;BME280;4207;49.314;7.162;2024-03-23T07:23:49;97651.94;;;6.08;73.61
8340;BME280;4207;49.314;7.162;2024-03-23T07:26:15;97660.38;;;6.05;74.84
8340;BME280;4207;49.314;7.162;2024-03-23T07:28:43;97650.63;;;6.06;74.12
8340;BME280;4207;49.314;7.162;2024-03-23T07:31:11;97653.56;;;6.14;74.35
8340;BME280;4207;49.314;7.162;2024-03-23T07:33:43;97655.41;;;6.19;73.66
8340;BME280;4207;49.314;7.162;2024-03-23T07:36:09;97656.31;;;6.45;74.17
8340;BME280;4207;49.314;7.162;2024-03-23T07:38:36;97669.03;;;6.53;73.26
8340;BME280;4207;49.314;7.162;2024-03-23T07:41:03;97670.56;;;6.39;73.03
8340;BME280;4207;49.314;7.162;2024-03-23T07:43:31;97674.56;;;6.41;73.01
8340;BME280;4207;49.314;7.162;2024-03-23T07:45:57;97673.81;;;6.61;71.98
8340;BME280;4207;49.314;7.162;2024-03-23T07:48:24;97681.16;;;6.44;72.05
8340;BME280;4207;49.314;7.162;2024-03-23T07:51:02;97686.88;;;6.25;72.42
8340;BME280;4207;49.314;7.162;2024-03-23T07:53:31;97691.69;;;6.39;70.65
8340;BME280;4207;49.314;7.162;2024-03-23T07:55:57;97690.19;;;6.58;71.88
8340;BME280;4207;49.314;7.162;2024-03-23T07:58:24;97690.72;;;6.60;70.98
8340;BME280;4207;49.314;7.162;2024-03-23T08:00:50;97691.47;;;6.45;72.34
8340;BME280;4207;49.314;7.162;2024-03-23T08:03:17;97685.38;;;6.40;72.40
8340;BME280;4207;49.314;7.162;2024-03-23T08:05:43;97689.09;;;6.44;71.77
8340;BME280;4207;49.314;7.162;2024-03-23T08:08:11;97699.97;;;6.62;70.65
8340;BME280;4207;49.314;7.162;2024-03-23T08:10:37;97707.38;;;6.60;70.80
8340;BME280;4207;49.314;7.162;2024-03-23T08:13:04;97705.47;;;6.41;70.02
8340;BME280;4207;49.314;7.162;2024-03-23T08:15:31;97704.44;;;6.57;71.17
8340;BME280;4207;49.314;7.162;2024-03-23T08:17:59;97701.53;;;6.53;72.68
8340;BME280;4207;49.314;7.162;2024-03-23T08:20:25;97701.19;;;6.35;73.23
8340;BME280;4207;49.314;7.162;2024-03-23T08:22:52;97698.56;;;6.35;72.41
8340;BME280;4207;49.314;7.162;2024-03-23T08:25:20;97693.00;;;6.31;73.64
8340;BME280;4207;49.314;7.162;2024-03-23T08:27:47;97696.16;;;6.33;72.74
8340;BME280;4207;49.314;7.162;2024-03-23T08:30:13;97706.56;;;6.50;73.31
8340;BME280;4207;49.314;7.162;2024-03-23T08:32:41;97707.16;;;6.77;71.41
8340;BME280;4207;49.314;7.162;2024-03-23T08:35:08;97710.91;;;6.91;71.28
8340;BME280;4207;49.314;7.162;2024-03-23T08:37:35;97717.91;;;6.50;71.79
8340;BME280;4207;49.314;7.162;2024-03-23T08:40:01;97725.34;;;6.58;71.93
8340;BME280;4207;49.314;7.162;2024-03-23T08:42:31;97721.94;;;6.68;70.29
8340;BME280;4207;49.314;7.162;2024-03-23T08:44:57;97720.91;;;6.74;71.25
8340;BME280;4207;49.314;7.162;2024-03-23T08:47:24;97723.88;;;6.93;69.44
8340;BME280;4207;49.314;7.162;2024-03-23T08:49:49;97714.06;;;6.78;69.32
8340;BME280;4207;49.314;7.162;2024-03-23T08:52:16;97716.22;;;7.01;67.31
8340;BME280;4207;49.314;7.162;2024-03-23T08:54:42;97715.31;;;6.65;67.77
8340;BME280;4207;49.314;7.162;2024-03-23T08:57:09;97718.06;;;6.96;66.85
8340;BME280;4207;49.314;7.162;2024-03-23T08:59:37;97727.81;;;6.85;68.09
8340;BME280;4207;49.314;7.162;2024-03-23T09:02:05;97720.72;;;6.91;67.03
8340;BME280;4207;49.314;7.162;2024-03-23T09:04:30;97730.00;;;7.13;66.36
8340;BME280;4207;49.314;7.162;2024-03-23T09:06:57;97728.13;;;7.04;67.25
8340;BME280;4207;49.314;7.162;2024-03-23T09:09:25;97727.88;;;7.15;67.44
8340;BME280;4207;49.314;7.162;2024-03-23T09:11:52;97724.19;;;7.26;66.15
8340;BME280;4207;49.314;7.162;2024-03-23T09:14:18;97721.56;;;7.26;66.40
8340;BME280;4207;49.314;7.162;2024-03-23T09:16:49;97722.03;;;6.98;66.26
8340;BME280;4207;49.314;7.162;2024-03-23T09:19:15;97729.50;;;7.31;66.40
8340;BME280;4207;49.314;7.162;2024-03-23T09:21:42;97721.28;;;7.18;66.19
8340;BME280;4207;49.314;7.162;2024-03-23T09:24:08;97718.94;;;7.42;64.61
8340;BME280;4207;49.314;7.162;2024-03-23T09:26:35;97727.38;;;7.18;65.38
8340;BME280;4207;49.314;7.162;2024-03-23T09:29:01;97719.19;;;7.45;65.36
8340;BME280;4207;49.314;7.162;2024-03-23T09:31:27;97723.16;;;7.48;64.90
8340;BME280;4207;49.314;7.162;2024-03-23T09:33:55;97721.31;;;7.68;62.78
8340;BME280;4207;49.314;7.162;2024-03-23T09:36:21;97719.97;;;7.61;62.72
8340;BME280;4207;49.314;7.162;2024-03-23T09:38:47;97722.34;;;7.52;63.18
8340;BME280;4207;49.314;7.162;2024-03-23T09:41:14;97726.59;;;7.33;66.12
8340;BME280;4207;49.314;7.162;2024-03-23T09:43:40;97730.59;;;7.51;66.70
8340;BME280;4207;49.314;7.162;2024-03-23T09:46:07;97724.50;;;7.65;66.05
8340;BME280;4207;49.314;7.162;2024-03-23T09:48:33;97721.28;;;7.78;65.90
8340;BME280;4207;49.314;7.162;2024-03-23T09:51:02;97720.25;;;7.84;66.32
8340;BME280;4207;49.314;7.162;2024-03-23T09:53:29;97717.56;;;8.05;64.64
8340;BME280;4207;49.314;7.162;2024-03-23T09:55:57;97723.91;;;7.98;63.85
8340;BME280;4207;49.314;7.162;2024-03-23T09:58:23;97725.25;;;8.01;65.43
8340;BME280;4207;49.314;7.162;2024-03-23T10:00:50;97717.84;;;7.98;63.63
8340;BME280;4207;49.314;7.162;2024-03-23T10:03:16;97712.50;;;8.18;59.07
8340;BME280;4207;49.314;7.162;2024-03-23T10:05:43;97705.63;;;8.02;59.51
8340;BME280;4207;49.314;7.162;2024-03-23T10:08:19;97702.47;;;8.05;57.74
8340;BME280;4207;49.314;7.162;2024-03-23T10:10:46;97702.16;;;8.17;56.42
8340;BME280;4207;49.314;7.162;2024-03-23T10:13:23;97700.56;;;8.21;57.29
8340;BME280;4207;49.314;7.162;2024-03-23T10:15:55;97695.53;;;8.29;57.40
8340;BME280;4207;49.314;7.162;2024-03-23T10:18:22;97699.47;;;8.37;55.20
8340;BME280;4207;49.314;7.162;2024-03-23T10:20:52;97701.34;;;8.41;54.92
8340;BME280;4207;49.314;7.162;2024-03-23T10:23:19;97698.22;;;7.99;55.95
8340;BME280;4207;49.314;7.162;2024-03-23T10:25:46;97695.03;;;8.02;54.63
8340;BME280;4207;49.314;7.162;2024-03-23T10:28:12;97692.94;;;7.99;54.46
8340;BME280;4207;49.314;7.162;2024-03-23T10:30:39;97696.94;;;7.91;55.47
8340;BME280;4207;49.314;7.162;2024-03-23T10:33:09;97697.41;;;8.09;56.33
8340;BME280;4207;49.314;7.162;2024-03-23T10:35:36;97692.44;;;7.92;54.91
8340;BME280;4207;49.314;7.162;2024-03-23T10:38:05;97723.16;;;7.83;54.90
8340;BME280;4207;49.314;7.162;2024-03-23T10:40:35;97725.38;;;6.68;59.59
8340;BME280;4207;49.314;7.162;2024-03-23T10:43:03;97780.81;;;5.75;68.62
8340;BME280;4207;49.314;7.162;2024-03-23T10:45:30;97763.53;;;4.82;74.99
8340;BME280;4207;49.314;7.162;2024-03-23T10:47:56;97746.03;;;5.19;75.75
8340;BME280;4207;49.314;7.162;2024-03-23T10:50:23;97738.56;;;5.43;72.27
8340;BME280;4207;49.314;7.162;2024-03-23T10:52:49;97738.34;;;5.44;76.15
8340;BME280;4207;49.314;7.162;2024-03-23T10:55:22;97743.31;;;5.72;75.90
8340;BME280;4207;49.314;7.162;2024-03-23T10:57:53;97741.44;;;5.68;75.77
8340;BME280;4207;49.314;7.162;2024-03-23T11:00:20;97733.00;;;6.08;76.80
8340;BME280;4207;49.314;7.162;2024-03-23T11:02:48;97720.25;;;6.42;75.47
8340;BME280;4207;49.314;7.162;2024-03-23T11:05:28;97722.28;;;6.87;73.38
8340;BME280;4207;49.314;7.162;2024-03-23T11:07:54;97717.81;;;7.02;73.50
8340;BME280;4207;49.314;7.162;2024-03-23T11:10:25;97710.69;;;7.18;71.80
8340;BME280;4207;49.314;7.162;2024-03-23T11:12:53;97695.38;;;7.65;74.23
8340;BME280;4207;49.314;7.162;2024-03-23T11:15:20;97687.38;;;7.95;71.27
8340;BME280;4207;49.314;7.162;2024-03-23T11:18:04;97688.66;;;8.18;64.89
8340;BME280;4207;49.314;7.162;2024-03-23T11:20:33;97680.72;;;8.18;65.54
8340;BME280;4207;49.314;7.162;2024-03-23T11:22:59;97680.44;;;8.30;63.22
8340;BME280;4207;49.314;7.162;2024-03-23T11:25:27;97706.97;;;8.10;62.93
8340;BME280;4207;49.314;7.162;2024-03-23T11:27:56;97780.09;;;7.60;63.05
8340;BME280;4207;49.314;7.162;2024-03-23T11:30:24;97807.81;;;6.18;70.01
8340;BME280;4207;49.314;7.162;2024-03-23T11:32:52;97797.47;;;5.00;75.77
8340;BME280;4207;49.314;7.162;2024-03-23T11:35:27;97788.09;;;4.06;80.44
8340;BME280;4207;49.314;7.162;2024-03-23T11:38:04;97780.72;;;4.24;81.38
8340;BME280;4207;49.314;7.162;2024-03-23T11:40:31;97775.22;;;4.26;81.90
8340;BME280;4207;49.314;7.162;2024-03-23T11:43:00;97774.78;;;4.34;83.01
8340;BME280;4207;49.314;7.162;2024-03-23T11:45:27;97788.66;;;4.46;82.26
8340;BME280;4207;49.314;7.162;2024-03-23T11:48:05;97805.00;;;4.26;82.25
8340;BME280;4207;49.314;7.162;2024-03-23T11:50:33;97784.25;;;4.13;82.84
8340;BME280;4207;49.314;7.162;2024-03-23T11:53:14;97777.44;;;4.34;82.95
8340;BME280;4207;49.314;7.162;2024-03-23T11:55:48;97759.50;;;4.52;82.25
8340;BME280;4207;49.314;7.162;2024-03-23T11:58:17;97759.69;;;4.46;82.82
8340;BME280;4207;49.314;7.162;2024-03-23T12:00:50;97764.09;;;4.62;81.27
8340;BME280;4207;49.314;7.162;2024-03-23T12:03:16;97763.59;;;4.65;81.34
8340;BME280;4207;49.314;7.162;2024-03-23T12:05:48;97750.25;;;4.72;81.54
8340;BME280;4207;49.314;7.162;2024-03-23T12:08:21;97741.81;;;4.96;79.99
8340;BME280;4207;49.314;7.162;2024-03-23T12:10:50;97746.34;;;5.01;81.06
8340;BME280;4207;49.314;7.162;2024-03-23T12:13:21;97744.81;;;5.32;82.38
8340;BME280;4207;49.314;7.162;2024-03-23T12:15:50;97744.09;;;5.41;82.48
8340;BME280;4207;49.314;7.162;2024-03-23T12:18:16;97731.94;;;5.72;81.35
8340;BME280;4207;49.314;7.162;2024-03-23T12:20:43;97743.28;;;5.67;81.43
8340;BME280;4207;49.314;7.162;2024-03-23T12:23:10;97752.06;;;5.78;80.19
8340;BME280;4207;49.314;7.162;2024-03-23T12:25:41;97751.81;;;5.80;79.56
8340;BME280;4207;49.314;7.162;2024-03-23T12:28:07;97726.66;;;5.72;75.91
8340;BME280;4207;49.314;7.162;2024-03-23T12:30:38;97726.44;;;5.79;78.16
8340;BME280;4207;49.314;7.162;2024-03-23T12:33:05;97709.25;;;5.71;77.21
8340;BME280;4207;49.314;7.162;2024-03-23T12:35:32;97721.47;;;5.82;76.60
8340;BME280;4207;49.314;7.162;2024-03-23T12:37:58;97714.69;;;5.91;78.84
8340;BME280;4207;49.314;7.162;2024-03-23T12:40:25;97727.44;;;5.67;77.84
8340;BME280;4207;49.314;7.162;2024-03-23T12:42:52;97706.97;;;5.85;77.19
8340;BME280;4207;49.314;7.162;2024-03-23T12:45:19;97716.06;;;5.99;79.07
8340;BME280;4207;49.314;7.162;2024-03-23T12:47:46;97704.69;;;5.98;79.77
8340;BME280;4207;49.314;7.162;2024-03-23T12:50:13;97695.84;;;6.19;79.11
8340;BME280;4207;49.314;7.162;2024-03-23T12:52:39;97687.22;;;6.39;76.15
8340;BME280;4207;49.314;7.162;2024-03-23T12:55:06;97678.53;;;6.54;75.97
8340;BME280;4207;49.314;7.162;2024-03-23T12:57:32;97680.22;;;6.85;74.89
8340;BME280;4207;49.314;7.162;2024-03-23T12:59:59;97677.31;;;6.97;70.94
8340;BME280;4207;49.314;7.162;2024-03-23T13:02:26;97692.16;;;6.98;70.65
8340;BME280;4207;49.314;7.162;2024-03-23T13:04:54;97674.88;;;6.65;70.43
8340;BME280;4207;49.314;7.162;2024-03-23T13:07:22;97665.41;;;6.79;69.74
8340;BME280;4207;49.314;7.162;2024-03-23T13:09:50;97675.66;;;6.55;69.12
8340;BME280;4207;49.314;7.162;2024-03-23T13:12:16;97665.56;;;6.47;70.28
8340;BME280;4207;49.314;7.162;2024-03-23T13:14:44;97665.88;;;6.56;70.31
8340;BME280;4207;49.314;7.162;2024-03-23T13:17:10;97660.66;;;6.81;70.34
8340;BME280;4207;49.314;7.162;2024-03-23T13:19:37;97663.31;;;7.01;69.47
8340;BME280;4207;49.314;7.162;2024-03-23T13:22:05;97658.84;;;7.02;68.57
8340;BME280;4207;49.314;7.162;2024-03-23T13:24:32;97650.91;;;7.07;67.52
8340;BME280;4207;49.314;7.162;2024-03-23T13:26:58;97647.19;;;6.93;66.29
8340;BME280;4207;49.314;7.162;2024-03-23T13:29:25;97640.03;;;7.08;64.57
8340;BME280;4207;49.314;7.162;2024-03-23T13:31:51;97641.38;;;7.06;67.16
8340;BME280;4207;49.314;7.162;2024-03-23T13:34:19;97628.13;;;7.26;66.13
8340;BME280;4207;49.314;7.162;2024-03-23T13:36:45;97642.72;;;7.13;65.66
8340;BME280;4207;49.314;7.162;2024-03-23T13:39:15;97626.31;;;6.96;64.87
8340;BME280;4207;49.314;7.162;2024-03-23T13:41:42;97626.81;;;7.03;64.54
8340;BME280;4207;49.314;7.162;2024-03-23T13:44:10;97628.44;;;7.19;64.64
8340;BME280;4207;49.314;7.162;2024-03-23T13:46:36;97621.78;;;7.42;63.43
8340;BME280;4207;49.314;7.162;2024-03-23T13:49:04;97613.31;;;7.50;62.35
8340;BME280;4207;49.314;7.162;2024-03-23T13:51:30;97615.16;;;7.60;61.80
8340;BME280;4207;49.314;7.162;2024-03-23T13:53:56;97608.53;;;7.57;63.53
8340;BME280;4207;49.314;7.162;2024-03-23T13:56:24;97601.38;;;7.63;61.09
8340;BME280;4207;49.314;7.162;2024-03-23T13:58:51;97608.78;;;7.71;61.54
8340;BME280;4207;49.314;7.162;2024-03-23T14:01:17;97610.34;;;7.82;62.67
8340;BME280;4207;49.314;7.162;2024-03-23T14:03:44;97599.78;;;7.62;60.21
8340;BME280;4207;49.314;7.162;2024-03-23T14:06:10;97597.59;;;7.94;59.92
8340;BME280;4207;49.314;7.162;2024-03-23T14:08:37;97598.63;;;8.03;57.97
8340;BME280;4207;49.314;7.162;2024-03-23T14:11:05;97593.94;;;7.70;59.60
8340;BME280;4207;49.314;7.162;2024-03-23T14:13:33;97598.25;;;7.46;58.75
8340;BME280;4207;49.314;7.162;2024-03-23T14:15:59;97614.91;;;7.36;58.16
8340;BME280;4207;49.314;7.162;2024-03-23T14:18:26;97686.88;;;7.13;61.53
8340;BME280;4207;49.314;7.162;2024-03-23T14:20:55;97746.81;;;4.93;76.08
8340;BME280;4207;49.314;7.162;2024-03-23T14:23:24;97740.34;;;3.64;79.25
8340;BME280;4207;49.314;7.162;2024-03-23T14:25:52;97711.22;;;3.37;81.05